This is the latest recevied weather packets stored in our database for station/object HS5HBQ-1. If no packets are shown the sender has not sent any weather packets the latest 10 day(s).
| Time | Temp. | Humidity | Pressure | Rain* | Wind** | Luminosity | Snow |
|---|---|---|---|---|---|---|---|
| 1777874248 | 35.56° C | 30% | 974 hPa | - | - | 0 W/m² | - |
| 1777873623 | 35° C | 33% | 974 hPa | - | - | 0 W/m² | - |
| 1777872999 | 35° C | 32% | 974 hPa | - | - | 0 W/m² | - |
| 1777872375 | 35° C | 32% | 975 hPa | - | - | 0 W/m² | - |
| 1777871750 | 35° C | 32% | 975 hPa | - | - | 0 W/m² | - |
| 1777871499 | 35° C | 33% | 975 hPa | - | - | 0 W/m² | - |
| 1777870875 | 34.44° C | 34% | 975 hPa | - | - | 0 W/m² | - |
| 1777870250 | 35° C | 33% | 975 hPa | - | - | 0 W/m² | - |
| 1777869626 | 35° C | 33% | 975 hPa | - | - | 0 W/m² | - |
| 1777869002 | 33.89° C | 35% | 975 hPa | - | - | 0 W/m² | - |
| 1777868378 | 34.44° C | 35% | 975 hPa | - | - | 0 W/m² | - |
| 1777867754 | 34.44° C | 34% | 975 hPa | - | - | 0 W/m² | - |
| 1777867130 | 34.44° C | 36% | 976 hPa | - | - | 0 W/m² | - |
| 1777866505 | 34.44° C | 35% | 976 hPa | - | - | 0 W/m² | - |
| 1777865881 | 34.44° C | 34% | 976 hPa | - | - | 0 W/m² | - |
| 1777865257 | 34.44° C | 36% | 976 hPa | - | - | 0 W/m² | - |
| 1777864631 | 34.44° C | 36% | 976 hPa | - | - | 0 W/m² | - |
| 1777864488 | 33.89° C | 37% | 976 hPa | - | - | 0 W/m² | - |
| 1777864194 | 33.89° C | 38% | 976 hPa | - | - | 0 W/m² | - |
| 1777863570 | 34.44° C | 36% | 976 hPa | - | - | 0 W/m² | - |
| 1777862945 | 33.33° C | 39% | 976 hPa | - | - | 0 W/m² | - |
| 1777862321 | 33.89° C | 39% | 976 hPa | - | - | 0 W/m² | - |
| 1777861697 | 33.89° C | 38% | 976 hPa | - | - | 0 W/m² | - |
| 1777861073 | 33.33° C | 40% | 976 hPa | - | - | 0 W/m² | - |
| 1777860449 | 32.78° C | 41% | 976 hPa | - | - | 0 W/m² | - |
* Rain since midnight (hover to see other rain measurements)
** Current wind speed in m/s (hover to see current wind gust speed)